sensor_id;sensor_type;location;lat;lon;timestamp;P1;durP1;ratioP1;P2;durP2;ratioP2
58992;SDS011;44782;0.000;0.000;2023-07-22T00:00:30;3.42;;;3.13;;
58992;SDS011;44782;0.000;0.000;2023-07-22T00:02:46;3.28;;;3.03;;
58992;SDS011;44782;0.000;0.000;2023-07-22T00:05:02;3.28;;;3.08;;
58992;SDS011;44782;0.000;0.000;2023-07-22T00:07:19;3.33;;;3.13;;
58992;SDS011;44782;0.000;0.000;2023-07-22T00:09:34;3.40;;;3.20;;
58992;SDS011;44782;0.000;0.000;2023-07-22T00:11:50;3.28;;;2.97;;
58992;SDS011;44782;0.000;0.000;2023-07-22T00:14:06;3.05;;;2.85;;
58992;SDS011;44782;0.000;0.000;2023-07-22T00:16:21;3.00;;;2.80;;
58992;SDS011;44782;0.000;0.000;2023-07-22T00:18:37;3.30;;;3.05;;
58992;SDS011;44782;0.000;0.000;2023-07-22T00:20:54;3.13;;;2.92;;
58992;SDS011;44782;0.000;0.000;2023-07-22T00:23:10;3.30;;;3.10;;
58992;SDS011;44782;0.000;0.000;2023-07-22T00:25:25;3.30;;;3.10;;
58992;SDS011;44782;0.000;0.000;2023-07-22T00:27:41;3.47;;;3.17;;
58992;SDS011;44782;0.000;0.000;2023-07-22T00:29:57;3.40;;;3.20;;
58992;SDS011;44782;0.000;0.000;2023-07-22T00:32:13;3.10;;;2.90;;
58992;SDS011;44782;0.000;0.000;2023-07-22T00:34:28;3.08;;;2.88;;
58992;SDS011;44782;0.000;0.000;2023-07-22T00:36:44;3.60;;;3.35;;
58992;SDS011;44782;0.000;0.000;2023-07-22T00:39:01;3.13;;;2.92;;
58992;SDS011;44782;0.000;0.000;2023-07-22T00:41:17;3.50;;;3.20;;
58992;SDS011;44782;0.000;0.000;2023-07-22T00:43:33;3.42;;;3.22;;
58992;SDS011;44782;0.000;0.000;2023-07-22T00:45:48;3.30;;;3.10;;
58992;SDS011;44782;0.000;0.000;2023-07-22T00:48:05;3.25;;;3.05;;
58992;SDS011;44782;0.000;0.000;2023-07-22T00:50:22;3.40;;;3.20;;
58992;SDS011;44782;0.000;0.000;2023-07-22T00:52:39;2.83;;;2.63;;
58992;SDS011;44782;0.000;0.000;2023-07-22T00:54:55;3.20;;;2.90;;
58992;SDS011;44782;0.000;0.000;2023-07-22T00:57:11;3.28;;;2.97;;
58992;SDS011;44782;0.000;0.000;2023-07-22T00:59:27;2.90;;;2.70;;
58992;SDS011;44782;0.000;0.000;2023-07-22T01:01:43;3.08;;;2.80;;
58992;SDS011;44782;0.000;0.000;2023-07-22T01:03:59;3.10;;;2.90;;
58992;SDS011;44782;0.000;0.000;2023-07-22T01:06:16;3.22;;;3.03;;
58992;SDS011;44782;0.000;0.000;2023-07-22T01:08:33;3.00;;;2.80;;
58992;SDS011;44782;0.000;0.000;2023-07-22T01:10:48;2.97;;;2.78;;
58992;SDS011;44782;0.000;0.000;2023-07-22T01:13:04;3.33;;;3.03;;
58992;SDS011;44782;0.000;0.000;2023-07-22T01:15:19;3.10;;;2.88;;
58992;SDS011;44782;0.000;0.000;2023-07-22T01:17:36;3.03;;;2.83;;
58992;SDS011;44782;0.000;0.000;2023-07-22T01:19:52;3.13;;;2.83;;
58992;SDS011;44782;0.000;0.000;2023-07-22T01:22:08;3.30;;;3.10;;
58992;SDS011;44782;0.000;0.000;2023-07-22T01:24:26;3.40;;;3.10;;
58992;SDS011;44782;0.000;0.000;2023-07-22T01:26:42;3.38;;;3.08;;
58992;SDS011;44782;0.000;0.000;2023-07-22T01:29:02;3.10;;;2.90;;
58992;SDS011;44782;0.000;0.000;2023-07-22T01:31:18;3.00;;;2.80;;
58992;SDS011;44782;0.000;0.000;2023-07-22T01:33:34;3.10;;;2.90;;
58992;SDS011;44782;0.000;0.000;2023-07-22T01:35:49;3.30;;;3.00;;
58992;SDS011;44782;0.000;0.000;2023-07-22T01:38:05;2.92;;;2.72;;
58992;SDS011;44782;0.000;0.000;2023-07-22T01:40:24;2.95;;;2.75;;
58992;SDS011;44782;0.000;0.000;2023-07-22T01:42:43;3.28;;;3.08;;
58992;SDS011;44782;0.000;0.000;2023-07-22T01:44:59;3.10;;;2.90;;
58992;SDS011;44782;0.000;0.000;2023-07-22T01:47:14;3.15;;;2.90;;
58992;SDS011;44782;0.000;0.000;2023-07-22T01:49:30;3.10;;;2.90;;
58992;SDS011;44782;0.000;0.000;2023-07-22T01:51:45;3.00;;;2.70;;
58992;SDS011;44782;0.000;0.000;2023-07-22T01:54:01;2.63;;;2.47;;
58992;SDS011;44782;0.000;0.000;2023-07-22T01:56:17;3.03;;;2.83;;
58992;SDS011;44782;0.000;0.000;2023-07-22T01:58:35;3.05;;;2.85;;
58992;SDS011;44782;0.000;0.000;2023-07-22T02:00:51;3.08;;;2.88;;
58992;SDS011;44782;0.000;0.000;2023-07-22T02:03:06;3.13;;;2.92;;
58992;SDS011;44782;0.000;0.000;2023-07-22T02:05:22;3.10;;;2.90;;
58992;SDS011;44782;0.000;0.000;2023-07-22T02:10:03;3.10;;;2.90;;
58992;SDS011;44782;0.000;0.000;2023-07-22T02:12:19;3.15;;;2.95;;
58992;SDS011;44782;0.000;0.000;2023-07-22T02:14:35;3.00;;;2.80;;
58992;SDS011;44782;0.000;0.000;2023-07-22T02:16:52;3.00;;;2.80;;
58992;SDS011;44782;0.000;0.000;2023-07-22T02:19:07;3.00;;;2.80;;
58992;SDS011;44782;0.000;0.000;2023-07-22T02:21:23;3.15;;;2.95;;
58992;SDS011;44782;0.000;0.000;2023-07-22T02:23:38;3.25;;;2.95;;
58992;SDS011;44782;0.000;0.000;2023-07-22T02:25:54;3.30;;;3.10;;
58992;SDS011;44782;0.000;0.000;2023-07-22T02:28:10;3.10;;;2.90;;
58992;SDS011;44782;0.000;0.000;2023-07-22T02:30:25;3.08;;;2.88;;
58992;SDS011;44782;0.000;0.000;2023-07-22T02:32:41;2.85;;;2.65;;
58992;SDS011;44782;0.000;0.000;2023-07-22T02:34:57;2.80;;;2.60;;
58992;SDS011;44782;0.000;0.000;2023-07-22T02:37:12;2.88;;;2.67;;
58992;SDS011;44782;0.000;0.000;2023-07-22T02:39:28;2.83;;;2.63;;
58992;SDS011;44782;0.000;0.000;2023-07-22T02:41:43;3.05;;;2.85;;
58992;SDS011;44782;0.000;0.000;2023-07-22T02:43:59;2.60;;;2.40;;
58992;SDS011;44782;0.000;0.000;2023-07-22T02:46:15;3.00;;;2.80;;
58992;SDS011;44782;0.000;0.000;2023-07-22T02:48:30;2.95;;;2.75;;
58992;SDS011;44782;0.000;0.000;2023-07-22T02:50:46;3.10;;;2.90;;
58992;SDS011;44782;0.000;0.000;2023-07-22T02:53:02;2.85;;;2.65;;
58992;SDS011;44782;0.000;0.000;2023-07-22T02:55:18;3.10;;;2.90;;
58992;SDS011;44782;0.000;0.000;2023-07-22T02:57:34;3.08;;;2.88;;
58992;SDS011;44782;0.000;0.000;2023-07-22T02:59:49;2.80;;;2.60;;
58992;SDS011;44782;0.000;0.000;2023-07-22T03:02:05;3.10;;;2.90;;
58992;SDS011;44782;0.000;0.000;2023-07-22T03:04:21;2.95;;;2.75;;
58992;SDS011;44782;0.000;0.000;2023-07-22T03:06:36;3.00;;;2.80;;
58992;SDS011;44782;0.000;0.000;2023-07-22T03:08:52;3.13;;;2.92;;
58992;SDS011;44782;0.000;0.000;2023-07-22T03:11:08;2.92;;;2.72;;
58992;SDS011;44782;0.000;0.000;2023-07-22T03:13:24;2.80;;;2.60;;
58992;SDS011;44782;0.000;0.000;2023-07-22T03:15:44;3.03;;;2.83;;
58992;SDS011;44782;0.000;0.000;2023-07-22T03:18:02;2.65;;;2.45;;
58992;SDS011;44782;0.000;0.000;2023-07-22T03:20:20;2.80;;;2.60;;
58992;SDS011;44782;0.000;0.000;2023-07-22T03:22:37;3.05;;;2.72;;
58992;SDS011;44782;0.000;0.000;2023-07-22T03:24:52;3.10;;;2.90;;
58992;SDS011;44782;0.000;0.000;2023-07-22T03:27:08;2.83;;;2.63;;
58992;SDS011;44782;0.000;0.000;2023-07-22T03:29:23;3.00;;;2.80;;
58992;SDS011;44782;0.000;0.000;2023-07-22T03:31:39;2.83;;;2.63;;
58992;SDS011;44782;0.000;0.000;2023-07-22T03:33:55;2.70;;;2.50;;
58992;SDS011;44782;0.000;0.000;2023-07-22T03:36:11;3.05;;;2.85;;
58992;SDS011;44782;0.000;0.000;2023-07-22T03:38:27;3.05;;;2.70;;
58992;SDS011;44782;0.000;0.000;2023-07-22T03:40:43;2.70;;;2.50;;
58992;SDS011;44782;0.000;0.000;2023-07-22T03:42:59;3.00;;;2.80;;
58992;SDS011;44782;0.000;0.000;2023-07-22T03:45:14;2.75;;;2.55;;
58992;SDS011;44782;0.000;0.000;2023-07-22T03:47:30;2.80;;;2.60;;
58992;SDS011;44782;0.000;0.000;2023-07-22T03:49:46;2.92;;;2.72;;
58992;SDS011;44782;0.000;0.000;2023-07-22T03:52:02;2.90;;;2.70;;
58992;SDS011;44782;0.000;0.000;2023-07-22T03:54:17;3.17;;;2.97;;
58992;SDS011;44782;0.000;0.000;2023-07-22T03:56:33;2.92;;;2.72;;
58992;SDS011;44782;0.000;0.000;2023-07-22T03:58:49;2.88;;;2.67;;
58992;SDS011;44782;0.000;0.000;2023-07-22T04:01:05;2.90;;;2.70;;
58992;SDS011;44782;0.000;0.000;2023-07-22T04:03:21;2.85;;;2.65;;
58992;SDS011;44782;0.000;0.000;2023-07-22T04:05:37;2.85;;;2.65;;
58992;SDS011;44782;0.000;0.000;2023-07-22T04:07:53;2.90;;;2.70;;
58992;SDS011;44782;0.000;0.000;2023-07-22T04:10:08;2.97;;;2.78;;
58992;SDS011;44782;0.000;0.000;2023-07-22T04:12:24;2.92;;;2.72;;
58992;SDS011;44782;0.000;0.000;2023-07-22T04:14:40;2.78;;;2.58;;
58992;SDS011;44782;0.000;0.000;2023-07-22T04:16:55;2.67;;;2.47;;
58992;SDS011;44782;0.000;0.000;2023-07-22T04:19:11;2.90;;;2.70;;
58992;SDS011;44782;0.000;0.000;2023-07-22T04:21:27;2.80;;;2.60;;
58992;SDS011;44782;0.000;0.000;2023-07-22T04:23:42;3.10;;;2.90;;
58992;SDS011;44782;0.000;0.000;2023-07-22T04:25:58;2.90;;;2.70;;
58992;SDS011;44782;0.000;0.000;2023-07-22T04:28:16;2.78;;;2.58;;
58992;SDS011;44782;0.000;0.000;2023-07-22T04:30:32;2.72;;;2.53;;
58992;SDS011;44782;0.000;0.000;2023-07-22T04:32:48;2.90;;;2.70;;
58992;SDS011;44782;0.000;0.000;2023-07-22T04:35:04;2.83;;;2.63;;
58992;SDS011;44782;0.000;0.000;2023-07-22T04:37:21;2.92;;;2.72;;
58992;SDS011;44782;0.000;0.000;2023-07-22T04:39:37;2.45;;;2.35;;
58992;SDS011;44782;0.000;0.000;2023-07-22T04:41:52;2.90;;;2.70;;
58992;SDS011;44782;0.000;0.000;2023-07-22T04:44:08;3.00;;;2.80;;
58992;SDS011;44782;0.000;0.000;2023-07-22T04:46:27;3.00;;;2.80;;
58992;SDS011;44782;0.000;0.000;2023-07-22T04:48:43;3.00;;;2.80;;
58992;SDS011;44782;0.000;0.000;2023-07-22T04:50:59;3.00;;;2.60;;
58992;SDS011;44782;0.000;0.000;2023-07-22T04:53:15;2.63;;;2.42;;
58992;SDS011;44782;0.000;0.000;2023-07-22T04:55:32;3.00;;;2.70;;
58992;SDS011;44782;0.000;0.000;2023-07-22T04:57:48;2.67;;;2.47;;
58992;SDS011;44782;0.000;0.000;2023-07-22T05:00:06;2.75;;;2.55;;
58992;SDS011;44782;0.000;0.000;2023-07-22T05:02:28;2.80;;;2.60;;
58992;SDS011;44782;0.000;0.000;2023-07-22T05:04:45;2.92;;;2.72;;
58992;SDS011;44782;0.000;0.000;2023-07-22T05:07:01;2.70;;;2.50;;
58992;SDS011;44782;0.000;0.000;2023-07-22T05:09:16;2.90;;;2.70;;
58992;SDS011;44782;0.000;0.000;2023-07-22T05:11:32;2.97;;;2.78;;
58992;SDS011;44782;0.000;0.000;2023-07-22T05:13:48;2.70;;;2.50;;
58992;SDS011;44782;0.000;0.000;2023-07-22T05:16:04;2.72;;;2.53;;
58992;SDS011;44782;0.000;0.000;2023-07-22T05:18:19;2.90;;;2.70;;
58992;SDS011;44782;0.000;0.000;2023-07-22T05:20:35;2.67;;;2.47;;
58992;SDS011;44782;0.000;0.000;2023-07-22T05:22:52;2.80;;;2.60;;
58992;SDS011;44782;0.000;0.000;2023-07-22T05:25:08;2.63;;;2.42;;
58992;SDS011;44782;0.000;0.000;2023-07-22T05:27:24;2.78;;;2.58;;
58992;SDS011;44782;0.000;0.000;2023-07-22T05:29:40;2.45;;;2.35;;
58992;SDS011;44782;0.000;0.000;2023-07-22T05:31:56;3.20;;;2.90;;
58992;SDS011;44782;0.000;0.000;2023-07-22T05:34:11;2.80;;;2.60;;
58992;SDS011;44782;0.000;0.000;2023-07-22T05:36:27;3.08;;;2.88;;
58992;SDS011;44782;0.000;0.000;2023-07-22T05:38:43;2.70;;;2.50;;
58992;SDS011;44782;0.000;0.000;2023-07-22T05:40:59;3.03;;;2.72;;
58992;SDS011;44782;0.000;0.000;2023-07-22T05:43:15;2.80;;;2.60;;
58992;SDS011;44782;0.000;0.000;2023-07-22T05:45:30;2.78;;;2.58;;
58992;SDS011;44782;0.000;0.000;2023-07-22T05:47:46;2.60;;;2.47;;
58992;SDS011;44782;0.000;0.000;2023-07-22T05:50:02;2.90;;;2.70;;
58992;SDS011;44782;0.000;0.000;2023-07-22T05:52:18;2.95;;;2.75;;
58992;SDS011;44782;0.000;0.000;2023-07-22T05:54:34;2.90;;;2.70;;
58992;SDS011;44782;0.000;0.000;2023-07-22T05:56:50;2.80;;;2.60;;
58992;SDS011;44782;0.000;0.000;2023-07-22T05:59:05;2.60;;;2.40;;
58992;SDS011;44782;0.000;0.000;2023-07-22T06:01:21;2.60;;;2.40;;
58992;SDS011;44782;0.000;0.000;2023-07-22T06:03:38;2.78;;;2.58;;
58992;SDS011;44782;0.000;0.000;2023-07-22T06:05:53;2.90;;;2.70;;
58992;SDS011;44782;0.000;0.000;2023-07-22T06:08:09;3.00;;;2.80;;
58992;SDS011;44782;0.000;0.000;2023-07-22T06:10:25;2.80;;;2.60;;
58992;SDS011;44782;0.000;0.000;2023-07-22T06:12:40;2.88;;;2.67;;
58992;SDS011;44782;0.000;0.000;2023-07-22T06:14:56;2.83;;;2.53;;
58992;SDS011;44782;0.000;0.000;2023-07-22T06:17:12;2.80;;;2.60;;
58992;SDS011;44782;0.000;0.000;2023-07-22T06:19:28;2.95;;;2.65;;
58992;SDS011;44782;0.000;0.000;2023-07-22T06:21:43;2.80;;;2.60;;
58992;SDS011;44782;0.000;0.000;2023-07-22T06:23:59;2.38;;;2.28;;
58992;SDS011;44782;0.000;0.000;2023-07-22T06:26:15;3.10;;;2.90;;
58992;SDS011;44782;0.000;0.000;2023-07-22T06:28:31;2.80;;;2.60;;
58992;SDS011;44782;0.000;0.000;2023-07-22T06:30:46;2.72;;;2.53;;
58992;SDS011;44782;0.000;0.000;2023-07-22T06:33:02;2.70;;;2.50;;
58992;SDS011;44782;0.000;0.000;2023-07-22T06:35:18;2.58;;;2.40;;
58992;SDS011;44782;0.000;0.000;2023-07-22T06:37:33;2.70;;;2.50;;
58992;SDS011;44782;0.000;0.000;2023-07-22T06:39:49;2.85;;;2.65;;
58992;SDS011;44782;0.000;0.000;2023-07-22T06:42:05;2.55;;;2.35;;
58992;SDS011;44782;0.000;0.000;2023-07-22T06:44:20;2.70;;;2.53;;
58992;SDS011;44782;0.000;0.000;2023-07-22T06:46:36;2.85;;;2.65;;
58992;SDS011;44782;0.000;0.000;2023-07-22T06:48:52;2.50;;;2.30;;
58992;SDS011;44782;0.000;0.000;2023-07-22T06:51:07;2.65;;;2.45;;
58992;SDS011;44782;0.000;0.000;2023-07-22T06:53:23;3.03;;;2.75;;
58992;SDS011;44782;0.000;0.000;2023-07-22T06:55:39;2.90;;;2.70;;
58992;SDS011;44782;0.000;0.000;2023-07-22T06:57:58;2.78;;;2.58;;
58992;SDS011;44782;0.000;0.000;2023-07-22T07:00:14;2.90;;;2.60;;
58992;SDS011;44782;0.000;0.000;2023-07-22T07:02:30;2.72;;;2.53;;
58992;SDS011;44782;0.000;0.000;2023-07-22T07:04:46;2.97;;;2.78;;
58992;SDS011;44782;0.000;0.000;2023-07-22T07:07:02;2.90;;;2.70;;
58992;SDS011;44782;0.000;0.000;2023-07-22T07:09:17;2.80;;;2.60;;
58992;SDS011;44782;0.000;0.000;2023-07-22T07:11:33;2.70;;;2.50;;
58992;SDS011;44782;0.000;0.000;2023-07-22T07:13:49;2.97;;;2.78;;
58992;SDS011;44782;0.000;0.000;2023-07-22T07:16:21;2.67;;;2.47;;
58992;SDS011;44782;0.000;0.000;2023-07-22T07:18:38;2.70;;;2.50;;
58992;SDS011;44782;0.000;0.000;2023-07-22T07:20:54;2.80;;;2.60;;
58992;SDS011;44782;0.000;0.000;2023-07-22T07:23:09;2.90;;;2.70;;
58992;SDS011;44782;0.000;0.000;2023-07-22T07:25:25;2.67;;;2.40;;
58992;SDS011;44782;0.000;0.000;2023-07-22T07:27:41;2.78;;;2.58;;
58992;SDS011;44782;0.000;0.000;2023-07-22T07:29:56;2.80;;;2.60;;
58992;SDS011;44782;0.000;0.000;2023-07-22T07:32:12;2.88;;;2.67;;
58992;SDS011;44782;0.000;0.000;2023-07-22T07:34:28;2.80;;;2.60;;
58992;SDS011;44782;0.000;0.000;2023-07-22T07:36:43;2.75;;;2.55;;
58992;SDS011;44782;0.000;0.000;2023-07-22T07:38:59;2.63;;;2.42;;
58992;SDS011;44782;0.000;0.000;2023-07-22T07:41:15;2.90;;;2.70;;
58992;SDS011;44782;0.000;0.000;2023-07-22T07:43:30;2.97;;;2.78;;
58992;SDS011;44782;0.000;0.000;2023-07-22T07:45:46;2.70;;;2.50;;
58992;SDS011;44782;0.000;0.000;2023-07-22T07:48:02;2.70;;;2.50;;
58992;SDS011;44782;0.000;0.000;2023-07-22T07:50:17;2.60;;;2.40;;
58992;SDS011;44782;0.000;0.000;2023-07-22T07:52:33;2.65;;;2.45;;
58992;SDS011;44782;0.000;0.000;2023-07-22T07:54:49;2.78;;;2.58;;
58992;SDS011;44782;0.000;0.000;2023-07-22T07:57:05;2.75;;;2.55;;
58992;SDS011;44782;0.000;0.000;2023-07-22T07:59:21;2.70;;;2.50;;
58992;SDS011;44782;0.000;0.000;2023-07-22T08:01:36;3.20;;;3.00;;
58992;SDS011;44782;0.000;0.000;2023-07-22T08:03:56;2.88;;;2.67;;
58992;SDS011;44782;0.000;0.000;2023-07-22T08:06:12;2.92;;;2.70;;
58992;SDS011;44782;0.000;0.000;2023-07-22T08:08:28;2.70;;;2.50;;
58992;SDS011;44782;0.000;0.000;2023-07-22T08:10:44;2.85;;;2.65;;
58992;SDS011;44782;0.000;0.000;2023-07-22T08:12:59;2.85;;;2.53;;
58992;SDS011;44782;0.000;0.000;2023-07-22T08:15:15;3.00;;;2.55;;
58992;SDS011;44782;0.000;0.000;2023-07-22T08:17:31;3.45;;;2.72;;
58992;SDS011;44782;0.000;0.000;2023-07-22T08:19:47;3.42;;;2.60;;
58992;SDS011;44782;0.000;0.000;2023-07-22T08:22:03;3.42;;;2.80;;
58992;SDS011;44782;0.000;0.000;2023-07-22T08:24:19;3.00;;;2.70;;
58992;SDS011;44782;0.000;0.000;2023-07-22T08:26:34;3.53;;;2.60;;
58992;SDS011;44782;0.000;0.000;2023-07-22T08:28:50;3.28;;;3.08;;
58992;SDS011;44782;0.000;0.000;2023-07-22T08:31:05;2.80;;;2.60;;
58992;SDS011;44782;0.000;0.000;2023-07-22T08:33:21;3.25;;;2.95;;
58992;SDS011;44782;0.000;0.000;2023-07-22T08:35:38;4.28;;;3.10;;
58992;SDS011;44782;0.000;0.000;2023-07-22T08:37:54;3.42;;;3.13;;
58992;SDS011;44782;0.000;0.000;2023-07-22T08:40:10;3.40;;;3.10;;
58992;SDS011;44782;0.000;0.000;2023-07-22T08:42:26;3.58;;;3.28;;
58992;SDS011;44782;0.000;0.000;2023-07-22T08:44:47;3.28;;;3.00;;
58992;SDS011;44782;0.000;0.000;2023-07-22T08:47:05;3.55;;;3.20;;
58992;SDS011;44782;0.000;0.000;2023-07-22T08:49:26;3.40;;;3.15;;
58992;SDS011;44782;0.000;0.000;2023-07-22T08:51:44;3.35;;;2.70;;
58992;SDS011;44782;0.000;0.000;2023-07-22T08:54:00;3.50;;;3.20;;
58992;SDS011;44782;0.000;0.000;2023-07-22T08:56:17;3.35;;;3.10;;
58992;SDS011;44782;0.000;0.000;2023-07-22T08:58:33;3.00;;;2.80;;
58992;SDS011;44782;0.000;0.000;2023-07-22T09:00:50;3.55;;;3.25;;
58992;SDS011;44782;0.000;0.000;2023-07-22T09:03:06;4.05;;;3.05;;
58992;SDS011;44782;0.000;0.000;2023-07-22T09:05:23;3.85;;;3.05;;
58992;SDS011;44782;0.000;0.000;2023-07-22T09:07:40;3.72;;;3.42;;
58992;SDS011;44782;0.000;0.000;2023-07-22T09:09:56;4.53;;;3.50;;
58992;SDS011;44782;0.000;0.000;2023-07-22T09:12:14;7.55;;;4.50;;
58992;SDS011;44782;0.000;0.000;2023-07-22T09:14:30;6.35;;;4.95;;
58992;SDS011;44782;0.000;0.000;2023-07-22T09:16:47;6.78;;;4.82;;
58992;SDS011;44782;0.000;0.000;2023-07-22T09:19:03;7.30;;;4.70;;
58992;SDS011;44782;0.000;0.000;2023-07-22T09:21:20;6.40;;;4.90;;
58992;SDS011;44782;0.000;0.000;2023-07-22T09:23:36;7.13;;;4.82;;
58992;SDS011;44782;0.000;0.000;2023-07-22T09:25:53;8.10;;;5.13;;
58992;SDS011;44782;0.000;0.000;2023-07-22T09:28:27;7.75;;;5.22;;
58992;SDS011;44782;0.000;0.000;2023-07-22T09:31:02;6.93;;;4.70;;
58992;SDS011;44782;0.000;0.000;2023-07-22T09:33:21;7.32;;;4.88;;
58992;SDS011;44782;0.000;0.000;2023-07-22T09:38:00;5.93;;;4.38;;
58992;SDS011;44782;0.000;0.000;2023-07-22T09:40:27;7.05;;;4.63;;
58992;SDS011;44782;0.000;0.000;2023-07-22T09:42:44;7.32;;;5.07;;
58992;SDS011;44782;0.000;0.000;2023-07-22T09:45:07;8.88;;;4.43;;
58992;SDS011;44782;0.000;0.000;2023-07-22T09:47:24;7.10;;;4.60;;
58992;SDS011;44782;0.000;0.000;2023-07-22T09:49:40;7.32;;;4.28;;
58992;SDS011;44782;0.000;0.000;2023-07-22T09:51:57;7.30;;;4.25;;
58992;SDS011;44782;0.000;0.000;2023-07-22T09:54:13;6.70;;;4.30;;
58992;SDS011;44782;0.000;0.000;2023-07-22T09:56:28;6.55;;;4.45;;
58992;SDS011;44782;0.000;0.000;2023-07-22T09:58:44;7.85;;;4.35;;
58992;SDS011;44782;0.000;0.000;2023-07-22T10:01:01;6.38;;;4.55;;
58992;SDS011;44782;0.000;0.000;2023-07-22T10:03:17;5.93;;;4.20;;
58992;SDS011;44782;0.000;0.000;2023-07-22T10:05:35;5.07;;;4.00;;
58992;SDS011;44782;0.000;0.000;2023-07-22T10:07:52;5.85;;;3.78;;
58992;SDS011;44782;0.000;0.000;2023-07-22T10:10:10;5.15;;;4.00;;
58992;SDS011;44782;0.000;0.000;2023-07-22T10:12:27;4.63;;;3.80;;
58992;SDS011;44782;0.000;0.000;2023-07-22T10:14:43;4.28;;;3.88;;
58992;SDS011;44782;0.000;0.000;2023-07-22T10:17:00;5.80;;;4.40;;
58992;SDS011;44782;0.000;0.000;2023-07-22T10:19:16;5.72;;;4.50;;
58992;SDS011;44782;0.000;0.000;2023-07-22T10:21:32;8.75;;;4.10;;
58992;SDS011;44782;0.000;0.000;2023-07-22T10:23:49;4.20;;;3.80;;
58992;SDS011;44782;0.000;0.000;2023-07-22T10:26:06;5.85;;;4.60;;
58992;SDS011;44782;0.000;0.000;2023-07-22T10:28:22;10.68;;;7.18;;
58992;SDS011;44782;0.000;0.000;2023-07-22T10:30:38;10.30;;;8.40;;
58992;SDS011;44782;0.000;0.000;2023-07-22T10:32:55;10.30;;;7.32;;
58992;SDS011;44782;0.000;0.000;2023-07-22T10:35:12;9.00;;;6.88;;
58992;SDS011;44782;0.000;0.000;2023-07-22T10:37:32;8.60;;;6.65;;
58992;SDS011;44782;0.000;0.000;2023-07-22T10:39:48;7.55;;;6.75;;
58992;SDS011;44782;0.000;0.000;2023-07-22T10:42:04;7.70;;;6.93;;
58992;SDS011;44782;0.000;0.000;2023-07-22T10:44:20;8.93;;;7.50;;
58992;SDS011;44782;0.000;0.000;2023-07-22T10:46:37;8.93;;;7.82;;
58992;SDS011;44782;0.000;0.000;2023-07-22T10:48:59;9.98;;;7.60;;
58992;SDS011;44782;0.000;0.000;2023-07-22T10:51:26;8.80;;;6.22;;
58992;SDS011;44782;0.000;0.000;2023-07-22T10:53:51;6.93;;;6.18;;
58992;SDS011;44782;0.000;0.000;2023-07-22T11:01:33;7.65;;;6.03;;
58992;SDS011;44782;0.000;0.000;2023-07-22T11:06:20;7.07;;;5.88;;
58992;SDS011;44782;0.000;0.000;2023-07-22T11:08:39;6.57;;;5.90;;
58992;SDS011;44782;0.000;0.000;2023-07-22T11:10:57;5.65;;;5.13;;
58992;SDS011;44782;0.000;0.000;2023-07-22T11:13:14;6.63;;;5.30;;
58992;SDS011;44782;0.000;0.000;2023-07-22T11:15:30;6.43;;;5.82;;
58992;SDS011;44782;0.000;0.000;2023-07-22T11:17:45;7.28;;;5.88;;
58992;SDS011;44782;0.000;0.000;2023-07-22T11:20:01;5.75;;;5.15;;
58992;SDS011;44782;0.000;0.000;2023-07-22T11:22:18;6.93;;;5.32;;
58992;SDS011;44782;0.000;0.000;2023-07-22T11:24:34;5.47;;;4.97;;
58992;SDS011;44782;0.000;0.000;2023-07-22T11:26:51;5.68;;;4.93;;
58992;SDS011;44782;0.000;0.000;2023-07-22T11:29:08;4.63;;;4.22;;
58992;SDS011;44782;0.000;0.000;2023-07-22T11:31:58;5.07;;;4.57;;
58992;SDS011;44782;0.000;0.000;2023-07-22T11:34:06;5.20;;;4.43;;
58992;SDS011;44782;0.000;0.000;2023-07-22T11:36:22;6.53;;;4.35;;
58992;SDS011;44782;0.000;0.000;2023-07-22T11:38:38;5.45;;;4.57;;
58992;SDS011;44782;0.000;0.000;2023-07-22T11:40:53;4.55;;;4.10;;
58992;SDS011;44782;0.000;0.000;2023-07-22T11:43:10;6.18;;;4.60;;
58992;SDS011;44782;0.000;0.000;2023-07-22T11:45:25;4.85;;;4.25;;
58992;SDS011;44782;0.000;0.000;2023-07-22T11:47:41;4.18;;;3.78;;
58992;SDS011;44782;0.000;0.000;2023-07-22T11:49:59;4.43;;;4.03;;
58992;SDS011;44782;0.000;0.000;2023-07-22T11:52:16;4.07;;;3.70;;
58992;SDS011;44782;0.000;0.000;2023-07-22T11:54:36;4.28;;;3.88;;
58992;SDS011;44782;0.000;0.000;2023-07-22T11:56:56;4.13;;;3.72;;
58992;SDS011;44782;0.000;0.000;2023-07-22T11:59:11;3.95;;;3.60;;
58992;SDS011;44782;0.000;0.000;2023-07-22T12:01:31;3.80;;;3.50;;
58992;SDS011;44782;0.000;0.000;2023-07-22T12:03:47;3.50;;;3.20;;
58992;SDS011;44782;0.000;0.000;2023-07-22T12:06:04;3.75;;;3.30;;
58992;SDS011;44782;0.000;0.000;2023-07-22T12:08:21;5.15;;;3.22;;
58992;SDS011;44782;0.000;0.000;2023-07-22T12:10:37;3.30;;;3.00;;
58992;SDS011;44782;0.000;0.000;2023-07-22T12:12:52;3.20;;;2.90;;
58992;SDS011;44782;0.000;0.000;2023-07-22T12:15:09;5.00;;;3.00;;
58992;SDS011;44782;0.000;0.000;2023-07-22T12:17:34;3.70;;;3.33;;
58992;SDS011;44782;0.000;0.000;2023-07-22T12:19:59;3.45;;;3.15;;
58992;SDS011;44782;0.000;0.000;2023-07-22T12:22:14;4.18;;;2.95;;
58992;SDS011;44782;0.000;0.000;2023-07-22T12:24:30;3.40;;;3.10;;
58992;SDS011;44782;0.000;0.000;2023-07-22T12:26:45;3.30;;;3.00;;
58992;SDS011;44782;0.000;0.000;2023-07-22T12:29:01;3.42;;;3.13;;
58992;SDS011;44782;0.000;0.000;2023-07-22T12:31:17;3.22;;;2.92;;
58992;SDS011;44782;0.000;0.000;2023-07-22T12:33:32;3.13;;;2.92;;
58992;SDS011;44782;0.000;0.000;2023-07-22T12:35:48;3.08;;;2.80;;
58992;SDS011;44782;0.000;0.000;2023-07-22T12:38:04;3.40;;;2.50;;
58992;SDS011;44782;0.000;0.000;2023-07-22T12:40:19;3.00;;;2.80;;
58992;SDS011;44782;0.000;0.000;2023-07-22T12:42:36;4.15;;;3.10;;
58992;SDS011;44782;0.000;0.000;2023-07-22T12:44:52;3.13;;;2.63;;
58992;SDS011;44782;0.000;0.000;2023-07-22T12:47:08;3.10;;;2.80;;
58992;SDS011;44782;0.000;0.000;2023-07-22T12:49:23;3.00;;;2.80;;
58992;SDS011;44782;0.000;0.000;2023-07-22T12:51:39;2.97;;;2.70;;
58992;SDS011;44782;0.000;0.000;2023-07-22T12:53:54;2.70;;;2.50;;
58992;SDS011;44782;0.000;0.000;2023-07-22T12:56:10;2.88;;;2.60;;
58992;SDS011;44782;0.000;0.000;2023-07-22T12:58:26;3.15;;;2.80;;
58992;SDS011;44782;0.000;0.000;2023-07-22T13:00:41;2.90;;;2.70;;
58992;SDS011;44782;0.000;0.000;2023-07-22T13:02:57;2.85;;;2.65;;
58992;SDS011;44782;0.000;0.000;2023-07-22T13:05:13;2.90;;;2.70;;
58992;SDS011;44782;0.000;0.000;2023-07-22T13:07:29;2.92;;;2.63;;
58992;SDS011;44782;0.000;0.000;2023-07-22T13:09:45;3.20;;;2.90;;
58992;SDS011;44782;0.000;0.000;2023-07-22T13:12:02;2.65;;;2.45;;
58992;SDS011;44782;0.000;0.000;2023-07-22T13:14:18;2.58;;;2.38;;
58992;SDS011;44782;0.000;0.000;2023-07-22T13:16:34;2.70;;;2.50;;
58992;SDS011;44782;0.000;0.000;2023-07-22T13:18:49;2.92;;;2.72;;
58992;SDS011;44782;0.000;0.000;2023-07-22T13:21:05;2.83;;;2.63;;
58992;SDS011;44782;0.000;0.000;2023-07-22T13:23:20;2.97;;;2.67;;
58992;SDS011;44782;0.000;0.000;2023-07-22T13:25:36;2.75;;;2.55;;
58992;SDS011;44782;0.000;0.000;2023-07-22T13:27:52;3.10;;;2.78;;
58992;SDS011;44782;0.000;0.000;2023-07-22T13:30:07;3.25;;;2.53;;
58992;SDS011;44782;0.000;0.000;2023-07-22T13:32:23;2.80;;;2.50;;
58992;SDS011;44782;0.000;0.000;2023-07-22T13:34:39;2.90;;;2.65;;
58992;SDS011;44782;0.000;0.000;2023-07-22T13:36:55;2.92;;;2.60;;
58992;SDS011;44782;0.000;0.000;2023-07-22T13:39:10;2.83;;;2.53;;
58992;SDS011;44782;0.000;0.000;2023-07-22T13:41:26;4.05;;;2.80;;
58992;SDS011;44782;0.000;0.000;2023-07-22T13:43:42;2.95;;;2.47;;
58992;SDS011;44782;0.000;0.000;2023-07-22T13:45:57;5.90;;;2.88;;
58992;SDS011;44782;0.000;0.000;2023-07-22T13:48:13;3.17;;;2.38;;
58992;SDS011;44782;0.000;0.000;2023-07-22T13:50:30;3.03;;;2.35;;
58992;SDS011;44782;0.000;0.000;2023-07-22T13:52:46;5.00;;;2.83;;
58992;SDS011;44782;0.000;0.000;2023-07-22T13:55:04;2.78;;;2.42;;
58992;SDS011;44782;0.000;0.000;2023-07-22T13:57:20;4.50;;;2.42;;
58992;SDS011;44782;0.000;0.000;2023-07-22T13:59:37;3.22;;;2.63;;
58992;SDS011;44782;0.000;0.000;2023-07-22T14:01:53;2.92;;;2.67;;
58992;SDS011;44782;0.000;0.000;2023-07-22T14:04:08;3.78;;;2.47;;
58992;SDS011;44782;0.000;0.000;2023-07-22T14:06:24;2.80;;;2.50;;